Time;durP1;ratioP1;P1;durP2;ratioP2;P2;SDS_P1;SDS_P2;PMS_P1;PMS_P2;Temp;Humidity;BMP_temperature;BMP_pressure;BME280_temperature;BME280_humidity;BME280_pressure;Samples;Min_cycle;Max_cycle;Signal;HPM_P1;HPM_P2
2023/08/02 00:01:48;;;;;;;8.32;2.83;;;17.50;99.90;;;;;;4008447;29;20657;-91
2023/08/02 00:03:49;;;;;;;9.13;2.80;;;17.60;99.90;;;;;;3993190;29;20213;-90
2023/08/02 00:05:58;;;;;;;12.90;2.90;;;17.50;99.90;;;;;;4008415;29;20218;-90
2023/08/02 00:07:58;;;;;;;8.02;2.97;;;17.40;99.90;;;;;;4008294;29;20187;-93
2023/08/02 00:09:59;;;;;;;11.60;3.50;;;17.40;99.90;;;;;;4008499;29;20210;-91
2023/08/02 00:12:00;;;;;;;8.40;2.40;;;17.50;99.90;;;;;;4008377;29;20195;-90
2023/08/02 00:14:01;;;;;;;10.73;2.88;;;17.50;99.90;;;;;;3993312;29;20393;-91
2023/08/02 00:16:01;;;;;;;10.68;2.65;;;17.40;99.90;;;;;;3993064;29;20282;-90
2023/08/02 00:18:02;;;;;;;9.55;2.92;;;17.50;99.90;;;;;;4008035;29;20553;-90
2023/08/02 00:20:04;;;;;;;14.77;2.88;;;17.50;99.90;;;;;;4008005;29;20293;-90
2023/08/02 00:22:05;;;;;;;8.50;2.55;;;17.60;99.90;;;;;;4008151;29;20187;-90
2023/08/02 00:24:05;;;;;;;12.75;2.92;;;17.80;99.90;;;;;;4008207;29;20194;-90
2023/08/02 00:26:06;;;;;;;6.78;2.50;;;17.80;99.90;;;;;;4007779;29;20278;-91
2023/08/02 00:28:07;;;;;;;7.25;2.78;;;17.90;99.90;;;;;;4007707;29;20183;-90
2023/08/02 00:30:08;;;;;;;13.82;3.13;;;17.80;99.90;;;;;;4007942;29;20290;-91
2023/08/02 00:32:09;;;;;;;14.75;2.90;;;17.70;99.90;;;;;;4023302;29;20186;-90
2023/08/02 00:34:09;;;;;;;6.40;2.47;;;17.70;99.90;;;;;;3993269;29;20188;-90
2023/08/02 00:36:10;;;;;;;14.20;2.70;;;17.90;99.90;;;;;;4022991;29;20193;-91
2023/08/02 00:38:11;;;;;;;9.88;2.80;;;17.80;99.90;;;;;;3993171;29;20234;-91
2023/08/02 00:40:12;;;;;;;11.15;3.00;;;17.80;99.90;;;;;;4007869;29;20202;-91
2023/08/02 00:42:13;;;;;;;10.27;2.72;;;17.80;99.90;;;;;;4007955;29;20275;-91
2023/08/02 00:44:14;;;;;;;8.73;2.13;;;17.70;99.90;;;;;;4007261;29;20194;-91
2023/08/02 00:46:18;;;;;;;10.23;2.65;;;17.50;99.90;;;;;;4022582;29;20218;-89
2023/08/02 00:48:19;;;;;;;5.47;2.50;;;17.50;99.90;;;;;;3992670;29;20184;-89
2023/08/02 00:50:22;;;;;;;12.05;3.28;;;17.70;99.90;;;;;;4007991;29;20211;-90
2023/08/02 00:52:23;;;;;;;8.00;2.85;;;17.50;99.90;;;;;;3992882;29;20210;-91
2023/08/02 00:54:25;;;;;;;5.10;2.17;;;17.50;99.90;;;;;;4007513;29;20270;-90
2023/08/02 00:56:25;;;;;;;4.28;2.35;;;17.50;99.90;;;;;;4007700;29;20625;-90
2023/08/02 00:58:26;;;;;;;8.30;2.53;;;17.40;99.90;;;;;;3992707;29;20227;-91
2023/08/02 01:00:27;;;;;;;7.80;2.70;;;17.60;99.90;;;;;;3992268;29;20207;-90
2023/08/02 01:02:28;;;;;;;6.28;2.38;;;17.60;99.90;;;;;;3992585;29;20260;-91
2023/08/02 01:04:29;;;;;;;7.70;2.38;;;17.50;99.90;;;;;;4007670;29;20183;-90
2023/08/02 01:06:36;;;;;;;5.45;2.40;;;17.40;99.90;;;;;;4007439;29;20704;-92
2023/08/02 01:08:41;;;;;;;9.57;2.28;;;17.40;99.90;;;;;;4007488;29;20183;-90
2023/08/02 01:10:45;;;;;;;11.05;2.50;;;17.50;99.90;;;;;;3992362;29;20244;-91
2023/08/02 01:12:49;;;;;;;8.77;2.30;;;17.70;99.90;;;;;;3977359;29;20598;-91
2023/08/02 01:14:55;;;;;;;7.97;2.30;;;17.80;99.90;;;;;;3977079;29;20211;-90
2023/08/02 01:16:56;;;;;;;10.70;2.15;;;17.90;99.90;;;;;;3977260;29;20195;-90
2023/08/02 01:19:07;;;;;;;8.30;2.40;;;17.80;99.90;;;;;;3977225;29;20630;-90
2023/08/02 01:21:08;;;;;;;8.20;2.20;;;17.70;99.90;;;;;;4006118;29;20210;-90
2023/08/02 01:23:09;;;;;;;6.57;2.10;;;17.80;99.90;;;;;;3992123;29;20634;-91
2023/08/02 01:25:10;;;;;;;6.70;2.40;;;17.70;99.90;;;;;;4022494;29;20190;-90
2023/08/02 01:27:53;;;;;;;6.75;2.40;;;17.70;99.90;;;;;;3992074;29;20227;-89
2023/08/02 01:29:57;;;;;;;5.55;2.10;;;17.70;99.90;;;;;;4007021;29;20211;-90
2023/08/02 01:31:58;;;;;;;10.10;2.22;;;17.60;99.90;;;;;;3991969;29;20236;-90
2023/08/02 01:34:00;;;;;;;8.75;2.58;;;17.70;99.90;;;;;;4007362;29;20187;-89
2023/08/02 01:36:01;;;;;;;4.85;2.33;;;17.80;99.90;;;;;;4006975;29;20179;-91
2023/08/02 01:38:02;;;;;;;10.30;2.50;;;17.90;99.90;;;;;;3992300;29;20708;-90
2023/08/02 01:40:03;;;;;;;9.43;2.20;;;17.90;99.90;;;;;;3992180;29;20240;-90
2023/08/02 01:42:04;;;;;;;5.90;2.53;;;17.80;99.90;;;;;;4007205;29;20680;-90
2023/08/02 01:44:05;;;;;;;7.47;2.70;;;17.80;99.90;;;;;;4007246;29;20209;-91
2023/08/02 01:46:06;;;;;;;8.68;2.65;;;17.80;99.90;;;;;;4006821;29;20219;-91
2023/08/02 01:48:08;;;;;;;8.05;2.95;;;17.90;99.90;;;;;;4022553;29;20651;-90
2023/08/02 01:50:09;;;;;;;6.78;2.88;;;18.00;99.90;;;;;;3991996;29;20261;-90
2023/08/02 01:52:11;;;;;;;6.53;2.88;;;17.90;99.90;;;;;;4006988;29;20204;-91
2023/08/02 01:54:11;;;;;;;9.02;2.88;;;17.70;99.90;;;;;;4022442;29;20231;-90
2023/08/02 01:56:12;;;;;;;5.45;2.70;;;17.80;99.90;;;;;;3991389;29;20189;-90
2023/08/02 01:58:13;;;;;;;10.15;3.22;;;17.80;99.90;;;;;;4007179;29;20214;-89
2023/08/02 02:00:14;;;;;;;5.20;2.83;;;17.70;99.90;;;;;;4006730;29;20246;-91
2023/08/02 02:02:17;;;;;;;8.60;2.70;;;17.70;99.90;;;;;;4022055;29;20755;-90
2023/08/02 02:04:18;;;;;;;6.80;2.83;;;17.60;99.90;;;;;;4007209;29;20232;-90
2023/08/02 02:06:18;;;;;;;5.22;2.83;;;17.60;99.90;;;;;;4006699;29;20314;-90
2023/08/02 02:08:19;;;;;;;5.95;2.70;;;17.70;99.90;;;;;;4006975;29;20542;-90
2023/08/02 02:10:20;;;;;;;6.22;3.00;;;17.90;99.90;;;;;;4006658;29;20215;-90
2023/08/02 02:12:21;;;;;;;7.78;2.97;;;18.00;99.90;;;;;;4007085;29;20287;-90
2023/08/02 02:14:22;;;;;;;8.02;3.10;;;17.80;99.90;;;;;;4021677;29;20541;-89
2023/08/02 02:16:22;;;;;;;10.70;3.20;;;17.80;99.90;;;;;;3991806;29;20176;-91
2023/08/02 02:18:23;;;;;;;7.35;3.08;;;18.00;99.90;;;;;;3992062;29;20211;-89
2023/08/02 02:20:24;;;;;;;12.23;3.38;;;17.90;99.90;;;;;;4006514;29;20258;-89
2023/08/02 02:22:25;;;;;;;8.93;4.07;;;18.00;99.90;;;;;;4006597;29;20199;-90
2023/08/02 02:24:26;;;;;;;8.82;3.60;;;18.00;99.90;;;;;;4022171;29;20747;-89
2023/08/02 02:26:26;;;;;;;6.60;3.08;;;18.00;99.90;;;;;;4006345;29;20237;-89
2023/08/02 02:28:27;;;;;;;9.73;3.13;;;18.00;99.90;;;;;;3991423;29;20191;-89
2023/08/02 02:30:29;;;;;;;8.38;3.08;;;17.90;99.90;;;;;;4006543;29;20691;-89
2023/08/02 02:32:30;;;;;;;7.88;3.08;;;17.90;99.90;;;;;;4006657;29;20753;-89
2023/08/02 02:34:31;;;;;;;4.70;2.75;;;17.80;99.90;;;;;;4021955;29;20194;-88
2023/08/02 02:36:31;;;;;;;7.95;3.47;;;17.90;99.90;;;;;;3991606;29;20183;-89
2023/08/02 02:38:32;;;;;;;8.73;3.42;;;18.00;99.90;;;;;;3991442;29;20325;-89
2023/08/02 02:40:33;;;;;;;7.55;3.20;;;18.10;99.90;;;;;;3991596;29;20230;-88
2023/08/02 02:42:34;;;;;;;7.82;3.15;;;18.00;99.90;;;;;;3991944;29;20203;-89
2023/08/02 02:44:42;;;;;;;10.35;3.38;;;18.10;99.90;;;;;;4006745;29;20189;-89
2023/08/02 02:46:43;;;;;;;9.25;3.20;;;18.10;99.90;;;;;;4021711;29;20230;-89
2023/08/02 02:48:44;;;;;;;10.98;3.60;;;18.10;99.90;;;;;;3991404;29;20744;-89
2023/08/02 02:50:44;;;;;;;10.55;3.65;;;18.10;99.90;;;;;;4006336;29;20195;-89
2023/08/02 02:52:45;;;;;;;12.95;3.85;;;18.10;99.90;;;;;;4021779;29;20289;-90
2023/08/02 02:54:46;;;;;;;9.55;3.42;;;18.00;99.90;;;;;;3991387;29;20271;-89
2023/08/02 02:56:47;;;;;;;10.63;3.33;;;18.00;99.90;;;;;;4021797;29;20218;-90
2023/08/02 02:58:47;;;;;;;6.47;3.35;;;17.80;99.90;;;;;;3991719;29;20203;-91
2023/08/02 03:00:49;;;;;;;8.10;3.33;;;17.70;99.90;;;;;;4006537;29;20239;-89
2023/08/02 03:02:50;;;;;;;6.22;3.13;;;17.80;99.90;;;;;;4006602;29;20344;-90
2023/08/02 03:04:51;;;;;;;7.80;3.75;;;17.70;99.90;;;;;;3991415;29;20184;-91
2023/08/02 03:06:52;;;;;;;8.48;3.10;;;17.70;99.90;;;;;;3991302;29;20224;-91
2023/08/02 03:08:52;;;;;;;10.57;3.35;;;17.60;99.90;;;;;;3993060;29;20188;-91
2023/08/02 03:10:53;;;;;;;9.10;3.50;;;17.60;99.90;;;;;;3994152;29;20539;-91
2023/08/02 03:12:54;;;;;;;5.65;3.30;;;17.60;99.90;;;;;;3993771;29;20180;-90
2023/08/02 03:14:55;;;;;;;7.95;3.20;;;17.80;99.90;;;;;;3993905;29;20234;-90
2023/08/02 03:16:55;;;;;;;8.60;3.50;;;17.90;99.90;;;;;;3993904;29;20266;-90
2023/08/02 03:18:56;;;;;;;6.07;3.35;;;17.90;99.90;;;;;;4008899;29;20183;-91
2023/08/02 03:20:57;;;;;;;7.32;3.53;;;17.90;99.90;;;;;;4008976;29;20186;-90
2023/08/02 03:22:58;;;;;;;11.27;4.03;;;17.90;99.90;;;;;;4009077;29;20554;-91
2023/08/02 03:24:58;;;;;;;6.03;3.53;;;17.80;99.90;;;;;;4008764;29;20262;-91
2023/08/02 03:26:59;;;;;;;9.40;3.90;;;17.80;99.90;;;;;;4008877;29;20235;-91
2023/08/02 03:29:00;;;;;;;6.90;3.58;;;17.70;99.90;;;;;;3993690;29;20238;-90
2023/08/02 03:31:01;;;;;;;5.60;3.47;;;17.70;99.90;;;;;;4008889;29;20214;-91
2023/08/02 03:33:02;;;;;;;6.60;3.78;;;17.70;99.90;;;;;;4023952;29;20178;-91
2023/08/02 03:35:03;;;;;;;8.85;3.53;;;17.60;99.90;;;;;;3993582;29;20553;-89
2023/08/02 03:37:03;;;;;;;8.00;3.30;;;17.60;99.90;;;;;;3993928;29;20696;-91
2023/08/02 03:39:04;;;;;;;7.40;3.33;;;17.70;99.90;;;;;;3993954;29;20208;-90
2023/08/02 03:41:05;;;;;;;8.63;3.75;;;17.70;99.90;;;;;;3993747;29;20646;-90
2023/08/02 03:43:06;;;;;;;6.60;3.30;;;17.80;99.90;;;;;;3993562;29;20219;-90
2023/08/02 03:45:07;;;;;;;6.35;2.80;;;17.90;99.90;;;;;;3993952;29;20347;-91
2023/08/02 03:47:08;;;;;;;6.43;3.42;;;17.80;99.90;;;;;;3992858;29;20283;-90
2023/08/02 03:49:09;;;;;;;5.82;3.35;;;17.80;99.90;;;;;;3993281;29;20287;-90
2023/08/02 03:51:09;;;;;;;8.13;3.10;;;17.80;99.90;;;;;;3993570;29;20200;-90
2023/08/02 03:53:11;;;;;;;6.90;3.47;;;17.70;99.90;;;;;;4008543;29;20178;-91
2023/08/02 03:55:11;;;;;;;5.22;2.80;;;17.60;99.90;;;;;;4008552;29;20187;-90
2023/08/02 03:57:12;;;;;;;5.78;3.00;;;17.60;99.90;;;;;;4008475;29;20179;-90
2023/08/02 03:59:13;;;;;;;5.13;3.10;;;17.60;99.90;;;;;;4008374;29;20206;-91
2023/08/02 04:01:13;;;;;;;6.90;3.10;;;17.80;99.90;;;;;;4008464;29;20273;-91
2023/08/02 04:03:14;;;;;;;7.00;3.47;;;17.70;99.90;;;;;;3993475;29;20183;-92
2023/08/02 04:05:15;;;;;;;7.50;3.17;;;17.80;99.90;;;;;;3993232;29;20227;-90
2023/08/02 04:07:16;;;;;;;5.93;2.97;;;17.90;99.90;;;;;;4023476;29;20260;-90
2023/08/02 04:09:16;;;;;;;4.55;2.60;;;17.70;99.90;;;;;;3993406;29;20353;-91
2023/08/02 04:11:17;;;;;;;6.68;2.80;;;17.70;99.90;;;;;;4023527;29;20193;-90
2023/08/02 04:13:18;;;;;;;8.40;2.95;;;17.70;99.90;;;;;;3993266;29;20287;-90
2023/08/02 04:15:19;;;;;;;8.40;3.05;;;17.80;99.90;;;;;;4023591;29;20219;-90
2023/08/02 04:17:20;;;;;;;7.28;2.80;;;17.90;99.90;;;;;;3993101;29;20191;-91
2023/08/02 04:19:20;;;;;;;8.75;3.42;;;18.00;99.90;;;;;;4023216;29;20198;-92
2023/08/02 04:21:21;;;;;;;5.07;2.92;;;18.00;99.90;;;;;;3993023;29;20191;-90
2023/08/02 04:23:22;;;;;;;7.28;3.20;;;18.10;99.90;;;;;;4023245;29;20178;-90
2023/08/02 04:25:23;;;;;;;5.88;2.85;;;18.10;99.90;;;;;;3993105;29;20192;-90
2023/08/02 04:27:24;;;;;;;4.78;2.65;;;18.20;99.90;;;;;;3992847;29;20231;-90
2023/08/02 04:29:25;;;;;;;5.50;2.83;;;18.20;99.90;;;;;;4007943;29;20560;-90
2023/08/02 04:31:25;;;;;;;5.95;2.63;;;18.10;99.90;;;;;;3992718;29;20190;-89
2023/08/02 04:33:27;;;;;;;4.97;2.20;;;18.10;99.90;;;;;;4007908;29;20598;-89
2023/08/02 04:35:29;;;;;;;5.38;2.20;;;18.00;99.90;;;;;;4023229;29;20190;-89
2023/08/02 04:37:30;;;;;;;5.22;2.45;;;17.90;99.90;;;;;;4023255;29;20285;-89
2023/08/02 04:39:30;;;;;;;2.97;1.88;;;17.90;99.90;;;;;;4007845;29;20379;-90
2023/08/02 04:41:31;;;;;;;4.13;1.65;;;18.00;99.90;;;;;;4023250;29;20281;-90
2023/08/02 04:43:32;;;;;;;6.28;1.80;;;18.10;99.90;;;;;;4008035;29;20222;-89
2023/08/02 04:45:33;;;;;;;12.68;3.13;;;18.10;99.90;;;;;;4007844;29;20599;-90
2023/08/02 04:47:33;;;;;;;3.03;1.85;;;18.00;99.90;;;;;;4007888;29;20729;-89
2023/08/02 04:49:37;;;;;;;4.75;1.60;;;17.80;99.90;;;;;;4007870;29;20301;-90
2023/08/02 04:51:38;;;;;;;2.67;1.45;;;17.80;99.90;;;;;;4007739;29;20247;-90
2023/08/02 04:53:40;;;;;;;2.05;1.33;;;17.70;99.90;;;;;;4022947;29;20194;-91
2023/08/02 04:55:42;;;;;;;5.30;1.80;;;17.70;99.90;;;;;;3992659;29;20188;-90
2023/08/02 04:57:43;;;;;;;3.42;1.63;;;17.60;99.90;;;;;;4007615;29;20194;-90
2023/08/02 04:59:44;;;;;;;2.97;1.55;;;17.90;99.90;;;;;;4007797;29;20203;-90
2023/08/02 05:01:45;;;;;;;4.47;1.50;;;17.90;99.90;;;;;;4007621;29;20299;-91
2023/08/02 05:03:45;;;;;;;2.45;1.20;;;18.10;99.90;;;;;;4007505;29;20277;-90
2023/08/02 05:05:46;;;;;;;2.85;1.33;;;18.00;99.90;;;;;;4007364;29;20554;-90
2023/08/02 05:07:47;;;;;;;1.92;1.20;;;18.00;99.90;;;;;;4022744;29;20679;-91
2023/08/02 05:09:47;;;;;;;2.95;1.15;;;18.00;99.90;;;;;;3992493;29;20212;-90
2023/08/02 05:11:48;;;;;;;3.08;1.10;;;17.80;99.90;;;;;;4022675;29;20277;-91
2023/08/02 05:13:49;;;;;;;4.13;1.08;;;18.00;99.90;;;;;;3992561;29;20195;-92
2023/08/02 05:15:51;;;;;;;3.65;0.88;;;18.00;99.90;;;;;;4022320;29;20576;-90
2023/08/02 05:17:51;;;;;;;2.25;1.00;;;18.10;99.90;;;;;;4007511;29;20195;-91
2023/08/02 05:19:53;;;;;;;1.15;0.90;;;18.10;99.90;;;;;;4022475;29;20218;-92
2023/08/02 05:21:53;;;;;;;2.22;0.95;;;18.10;99.90;;;;;;3992404;29;20269;-92
2023/08/02 05:23:54;;;;;;;4.82;1.08;;;17.90;99.90;;;;;;4022810;29;20667;-91
2023/08/02 05:25:55;;;;;;;1.23;0.60;;;17.80;99.90;;;;;;3992506;29;20192;-90
2023/08/02 05:27:56;;;;;;;1.88;0.75;;;17.70;99.90;;;;;;3992508;29;20646;-90
2023/08/02 05:29:57;;;;;;;1.40;0.70;;;17.80;99.90;;;;;;3992147;29;20214;-90
2023/08/02 05:31:58;;;;;;;1.23;0.65;;;17.90;99.90;;;;;;4006908;29;20187;-90
2023/08/02 05:33:58;;;;;;;3.15;0.45;;;17.80;99.90;;;;;;4007351;29;20550;-89
2023/08/02 05:36:00;;;;;;;1.65;0.63;;;18.00;99.90;;;;;;4007164;29;20182;-89
2023/08/02 05:38:01;;;;;;;4.07;0.70;;;18.10;99.90;;;;;;4007405;29;20197;-91
2023/08/02 05:40:02;;;;;;;1.52;0.80;;;18.00;99.90;;;;;;3992266;29;20290;-90
2023/08/02 05:42:03;;;;;;;2.67;0.55;;;17.80;99.90;;;;;;3992214;29;20194;-90
2023/08/02 05:44:04;;;;;;;1.35;0.50;;;17.60;99.90;;;;;;4007194;29;20739;-92
2023/08/02 05:46:05;;;;;;;1.90;0.50;;;17.60;99.90;;;;;;3992194;29;20212;-91
2023/08/02 05:48:06;;;;;;;1.95;0.65;;;17.60;99.90;;;;;;4006903;29;20195;-91
2023/08/02 05:50:07;;;;;;;0.93;0.35;;;17.70;99.90;;;;;;4007427;29;20203;-91
2023/08/02 05:52:08;;;;;;;2.80;0.50;;;17.80;99.90;;;;;;4007239;29;20191;-91
2023/08/02 05:54:09;;;;;;;0.35;0.30;;;17.80;99.90;;;;;;3991870;29;20187;-90
2023/08/02 05:56:09;;;;;;;3.92;0.47;;;17.90;99.90;;;;;;4006953;29;20187;-92
2023/08/02 05:58:11;;;;;;;1.08;0.30;;;18.00;99.90;;;;;;4007008;29;20193;-91
2023/08/02 06:00:12;;;;;;;0.73;0.40;;;18.00;99.90;;;;;;4006624;29;20246;-90
2023/08/02 06:02:12;;;;;;;0.20;0.20;;;18.00;99.90;;;;;;4007162;29;20552;-91
2023/08/02 06:04:13;;;;;;;1.35;0.30;;;18.10;99.90;;;;;;4006922;29;20178;-90
2023/08/02 06:06:14;;;;;;;0.82;0.38;;;18.00;99.90;;;;;;4006993;29;20739;-90
2023/08/02 06:08:15;;;;;;;1.15;0.30;;;17.90;99.90;;;;;;4006945;29;20237;-91
2023/08/02 06:10:15;;;;;;;0.98;0.30;;;18.00;99.90;;;;;;4006843;29;20215;-91
2023/08/02 06:12:16;;;;;;;1.15;0.40;;;18.00;99.90;;;;;;4006791;29;20240;-90
2023/08/02 06:14:17;;;;;;;1.45;0.28;;;18.00;99.90;;;;;;4006866;29;20187;-91
2023/08/02 06:16:18;;;;;;;1.50;0.30;;;17.80;99.90;;;;;;4006798;29;20183;-91
2023/08/02 06:18:19;;;;;;;2.22;0.20;;;17.80;99.90;;;;;;4006732;29;20199;-92
2023/08/02 06:20:19;;;;;;;1.52;0.30;;;17.80;99.90;;;;;;3991545;29;20207;-90
2023/08/02 06:22:20;;;;;;;0.75;0.20;;;17.90;99.90;;;;;;3991766;29;20721;-91
2023/08/02 06:24:21;;;;;;;0.55;0.20;;;17.90;99.90;;;;;;3991695;29;20283;-90
2023/08/02 06:26:22;;;;;;;1.05;0.20;;;17.90;99.90;;;;;;4006653;29;20317;-91
2023/08/02 06:28:23;;;;;;;1.35;0.20;;;18.00;99.90;;;;;;4006783;29;20195;-90
2023/08/02 06:30:23;;;;;;;3.85;0.20;;;18.00;99.90;;;;;;4006522;29;20586;-91
2023/08/02 06:32:24;;;;;;;2.03;0.30;;;18.00;99.90;;;;;;4006802;29;20191;-90
2023/08/02 06:34:25;;;;;;;1.85;0.20;;;18.10;99.90;;;;;;4007064;29;20339;-90
2023/08/02 06:36:26;;;;;;;0.25;0.10;;;18.10;99.90;;;;;;3991780;29;20184;-91
2023/08/02 06:38:26;;;;;;;0.43;0.08;;;18.10;99.90;;;;;;3992118;29;20199;-91
2023/08/02 06:40:27;;;;;;;6.40;0.50;;;18.10;99.90;;;;;;3991780;29;20247;-91
2023/08/02 06:42:28;;;;;;;1.73;0.10;;;18.20;99.90;;;;;;4008157;29;20636;-92
2023/08/02 06:44:28;;;;;;;1.27;0.20;;;18.20;99.90;;;;;;3994643;29;20187;-90
2023/08/02 06:46:30;;;;;;;0.43;0.10;;;18.20;99.90;;;;;;3994786;29;20299;-91
2023/08/02 06:48:31;;;;;;;0.55;0.10;;;18.10;99.90;;;;;;4009731;29;20194;-91
2023/08/02 06:50:37;;;;;;;2.55;0.10;;;18.10;99.90;;;;;;3994417;29;20251;-92
2023/08/02 06:52:38;;;;;;;0.20;0.10;;;18.20;99.90;;;;;;3994404;29;20251;-90
2023/08/02 06:54:38;;;;;;;0.40;0.10;;;18.40;99.90;;;;;;4009586;29;20195;-90
2023/08/02 06:56:39;;;;;;;0.25;0.00;;;18.50;99.90;;;;;;4009544;29;20194;-92
2023/08/02 06:58:40;;;;;;;0.38;0.00;;;18.70;99.90;;;;;;3994373;29;20684;-91
2023/08/02 07:00:41;;;;;;;1.95;0.20;;;18.60;99.90;;;;;;3994178;29;20187;-91
2023/08/02 07:02:42;;;;;;;0.75;0.00;;;18.70;99.90;;;;;;3994067;29;20180;-92
2023/08/02 07:04:43;;;;;;;0.70;0.17;;;18.80;99.90;;;;;;4009207;29;20645;-91
2023/08/02 07:06:44;;;;;;;1.42;0.00;;;19.10;99.90;;;;;;4009172;29;20250;-91
2023/08/02 07:08:45;;;;;;;2.92;0.10;;;19.00;99.90;;;;;;4024581;29;20186;-90
2023/08/02 07:10:45;;;;;;;0.55;0.10;;;18.90;99.90;;;;;;4009158;29;20186;-93
2023/08/02 07:12:48;;;;;;;0.73;0.13;;;18.80;99.90;;;;;;4009383;29;20191;-90
2023/08/02 07:14:49;;;;;;;0.45;0.00;;;19.00;99.90;;;;;;4009104;29;20186;-90
2023/08/02 07:16:49;;;;;;;0.57;0.10;;;19.00;99.90;;;;;;4009049;29;20534;-91
2023/08/02 07:18:50;;;;;;;1.95;0.10;;;19.00;99.90;;;;;;4009229;29;20600;-90
2023/08/02 07:20:51;;;;;;;2.90;0.03;;;19.10;99.90;;;;;;4009235;29;20258;-91
2023/08/02 07:22:52;;;;;;;0.45;0.10;;;19.20;99.90;;;;;;4009121;29;20191;-92
2023/08/02 07:24:53;;;;;;;0.95;0.10;;;19.10;99.90;;;;;;4008868;29;20183;-90
2023/08/02 07:26:53;;;;;;;2.55;0.20;;;19.20;99.90;;;;;;4009019;29;20230;-90
2023/08/02 07:28:54;;;;;;;0.50;0.20;;;19.30;99.90;;;;;;4008935;29;20598;-90
2023/08/02 07:31:13;;;;;;;2.50;0.20;;;19.30;99.90;;;;;;4009355;29;20293;-89
2023/08/02 07:33:13;;;;;;;0.93;0.20;;;19.30;99.90;;;;;;3993712;29;20191;-90
2023/08/02 07:35:14;;;;;;;1.48;0.20;;;19.10;99.90;;;;;;4008787;29;20773;-90
2023/08/02 07:37:15;;;;;;;0.52;0.30;;;19.20;99.90;;;;;;4009100;29;20752;-90
2023/08/02 07:39:16;;;;;;;0.47;0.20;;;19.50;99.90;;;;;;4008924;29;20207;-90
2023/08/02 07:41:16;;;;;;;1.65;0.30;;;19.70;99.90;;;;;;4008750;29;20324;-90
2023/08/02 07:43:17;;;;;;;2.38;0.38;;;19.80;99.90;;;;;;4008638;29;20231;-90
2023/08/02 07:45:18;;;;;;;4.03;0.20;;;20.00;99.90;;;;;;4008789;29;20191;-89
2023/08/02 07:47:19;;;;;;;0.40;0.20;;;20.10;99.90;;;;;;4008591;29;20221;-91
2023/08/02 07:49:19;;;;;;;0.20;0.20;;;20.10;99.90;;;;;;4008611;29;20214;-88
2023/08/02 07:51:20;;;;;;;0.82;0.10;;;20.40;99.90;;;;;;4008482;29;20222;-89
2023/08/02 07:53:21;;;;;;;4.07;0.20;;;20.30;99.90;;;;;;4008067;29;20229;-92
2023/08/02 07:55:22;;;;;;;4.20;0.57;;;20.10;99.90;;;;;;4008586;29;20191;-91
2023/08/02 07:57:26;;;;;;;0.63;0.17;;;20.00;99.90;;;;;;4008611;29;20684;-90
2023/08/02 07:59:27;;;;;;;2.20;0.22;;;20.40;99.90;;;;;;4008837;29;20203;-89
2023/08/02 08:01:28;;;;;;;0.20;0.15;;;20.40;99.90;;;;;;4008381;29;20183;-89
2023/08/02 08:03:28;;;;;;;2.17;0.10;;;20.50;99.90;;;;;;4023246;29;20186;-90
2023/08/02 08:05:30;;;;;;;0.20;0.10;;;20.50;99.90;;;;;;3993052;29;20191;-89
2023/08/02 08:07:31;;;;;;;0.73;0.20;;;20.60;99.90;;;;;;4008489;29;20716;-90
2023/08/02 08:09:31;;;;;;;1.00;0.10;;;20.70;99.90;;;;;;4008434;29;20218;-91
2023/08/02 08:11:32;;;;;;;1.42;0.22;;;20.70;99.90;;;;;;4008397;29;20239;-88
2023/08/02 08:13:33;;;;;;;1.85;0.28;;;20.90;99.90;;;;;;4008405;29;20312;-88
2023/08/02 08:15:34;;;;;;;1.20;0.30;;;20.80;99.90;;;;;;4008077;29;20259;-89
2023/08/02 08:17:35;;;;;;;2.13;0.30;;;21.10;99.90;;;;;;4008499;29;20199;-92
2023/08/02 08:19:35;;;;;;;1.13;0.30;;;21.30;99.90;;;;;;4008509;29;20264;-89
2023/08/02 08:21:36;;;;;;;0.50;0.35;;;21.50;99.90;;;;;;4008273;29;20199;-89
2023/08/02 08:23:37;;;;;;;2.22;0.40;;;21.70;99.90;;;;;;4008190;29;20191;-90
2023/08/02 08:25:38;;;;;;;1.92;0.40;;;22.00;99.90;;;;;;4008295;29;20199;-90
2023/08/02 08:27:38;;;;;;;6.90;0.40;;;22.40;99.90;;;;;;4007935;29;20649;-89
2023/08/02 08:29:39;;;;;;;2.22;0.38;;;22.80;99.90;;;;;;4008202;29;20210;-90
2023/08/02 08:31:40;;;;;;;1.75;0.32;;;22.90;99.90;;;;;;4008361;29;20676;-90
2023/08/02 08:33:41;;;;;;;3.75;0.30;;;23.20;99.90;;;;;;4008409;29;20202;-92
2023/08/02 08:35:42;;;;;;;0.65;0.28;;;23.10;99.90;;;;;;4008557;29;20199;-89
2023/08/02 08:37:42;;;;;;;0.35;0.28;;;22.50;99.90;;;;;;3992916;29;20200;-91
2023/08/02 08:39:43;;;;;;;0.75;0.20;;;22.40;99.90;;;;;;3992682;29;20220;-89
2023/08/02 08:41:45;;;;;;;1.13;0.30;;;22.20;99.90;;;;;;3992809;29;20201;-91
2023/08/02 08:43:45;;;;;;;1.85;0.40;;;22.10;99.90;;;;;;4008101;29;20669;-89
2023/08/02 08:45:47;;;;;;;0.22;0.20;;;22.40;99.90;;;;;;4022830;29;20267;-91
2023/08/02 08:50:10;;;;;;;1.75;0.38;;;22.50;99.90;;;;;;4052129;29;20229;-95
2023/08/02 08:52:12;;;;;;;2.35;0.30;;;22.60;99.90;;;;;;4053436;29;20189;-95
2023/08/02 08:54:30;;;;;;;1.67;0.30;;;22.70;99.90;;;;;;4052080;29;20220;-93
2023/08/02 08:57:01;;;;;;;1.75;0.20;;;23.30;99.90;;;;;;4063317;29;20193;-94
2023/08/02 08:59:06;;;;;;;0.13;0.10;;;24.40;99.90;;;;;;4048649;29;20208;-94
2023/08/02 09:01:07;;;;;;;0.77;0.22;;;25.60;99.90;;;;;;4033527;29;20252;-93
2023/08/02 09:03:09;;;;;;;1.48;0.30;;;26.00;99.90;;;;;;4050306;29;20177;-96
2023/08/02 09:05:11;;;;;;;0.90;0.10;;;25.80;99.90;;;;;;4050246;29;20164;-94
2023/08/02 09:07:12;;;;;;;2.67;0.28;;;25.40;99.90;;;;;;4048476;29;20209;-95
2023/08/02 09:09:14;;;;;;;1.23;0.30;;;25.00;99.90;;;;;;4064205;29;20729;-94
2023/08/02 09:11:47;;;;;;;3.60;0.30;;;24.50;99.90;;;;;;4045763;29;20188;-93
2023/08/02 09:14:07;;;;;;;2.13;0.30;;;24.20;99.90;;;;;;4066045;29;20209;-93
2023/08/02 09:16:15;;;;;;;0.20;0.20;;;24.10;99.90;;;;;;4042316;29;20242;-92
2023/08/02 09:18:16;;;;;;;0.20;0.20;;;23.60;99.90;;;;;;4041651;29;20193;-94
2023/08/02 09:20:22;;;;;;;4.20;0.28;;;23.00;99.90;;;;;;4045555;29;20209;-96
2023/08/02 09:22:24;;;;;;;1.17;0.13;;;22.90;99.90;;;;;;4010067;29;20255;-88
2023/08/02 09:24:33;;;;;;;1.02;0.28;;;22.80;99.90;;;;;;4041163;29;20189;-93
2023/08/02 09:26:34;;;;;;;0.35;0.20;;;23.00;99.90;;;;;;4045410;29;20228;-93
2023/08/02 09:28:35;;;;;;;0.30;0.30;;;22.90;99.90;;;;;;4033704;29;20676;-93
2023/08/02 09:30:36;;;;;;;1.88;0.22;;;22.70;99.90;;;;;;4053527;29;20663;-93
2023/08/02 09:36:07;;;;;;;5.07;0.70;;;22.30;99.90;;;;;;3983837;29;20195;-96
2023/08/02 10:03:27;;;;;;;6.60;1.40;;;23.30;99.90;;;;;;4164423;23;20264;-95
2023/08/02 10:06:45;;;;;;;8.23;1.25;;;23.10;99.90;;;;;;4019254;29;20278;-93
2023/08/02 10:09:21;;;;;;;6.13;1.20;;;23.10;99.90;;;;;;4028786;29;20216;-93
2023/08/02 10:11:29;;;;;;;8.60;1.80;;;22.40;99.90;;;;;;4037249;29;20177;-94
2023/08/02 10:14:09;;;;;;;10.32;1.70;;;21.90;99.90;;;;;;4051197;29;20185;-94
2023/08/02 10:16:31;;;;;;;8.50;1.55;;;22.00;99.90;;;;;;3955946;30;20201;-94
2023/08/02 10:18:34;;;;;;;8.90;1.85;;;22.90;99.90;;;;;;4040699;29;20193;-95
2023/08/02 10:20:36;;;;;;;11.48;2.08;;;23.20;99.90;;;;;;4051170;29;20701;-96
2023/08/02 10:22:44;;;;;;;12.48;2.20;;;23.30;99.90;;;;;;4037523;29;20185;-93
2023/08/02 10:24:48;;;;;;;9.73;1.80;;;23.60;99.90;;;;;;4050959;29;20170;-94
2023/08/02 10:26:49;;;;;;;7.90;1.60;;;23.80;99.90;;;;;;4030637;29;20241;-92
2023/08/02 10:28:51;;;;;;;10.23;1.60;;;23.90;99.90;;;;;;4045682;29;20213;-92
2023/08/02 10:30:52;;;;;;;10.35;1.85;;;23.70;99.90;;;;;;4029061;29;20190;-94
2023/08/02 10:33:23;;;;;;;9.98;1.50;;;23.90;99.90;;;;;;4047831;29;20190;-93
2023/08/02 10:36:03;;;;;;;7.43;1.60;;;24.00;99.90;;;;;;4031602;29;20285;-93
2023/08/02 10:38:04;;;;;;;19.88;3.17;;;23.60;99.90;;;;;;4027022;29;20226;-95
2023/08/02 10:40:05;;;;;;;10.18;1.50;;;23.50;99.90;;;;;;4048942;29;20202;-94
2023/08/02 10:42:06;;;;;;;9.80;1.92;;;23.50;99.90;;;;;;4051590;29;20174;-92
2023/08/02 10:44:12;;;;;;;9.80;1.42;;;23.80;99.90;;;;;;4050428;29;20170;-94
2023/08/02 10:46:18;;;;;;;8.25;1.70;;;24.30;99.90;;;;;;4049165;29;20595;-92
2023/08/02 10:48:26;;;;;;;9.60;1.60;;;24.50;99.90;;;;;;4050154;29;20197;-95
2023/08/02 10:50:45;;;;;;;10.32;2.15;;;24.10;99.90;;;;;;4046676;29;20204;-96
2023/08/02 10:52:45;;;;;;;11.45;1.98;;;24.10;99.90;;;;;;4050557;29;20193;-94
2023/08/02 10:55:10;;;;;;;9.55;1.88;;;23.50;99.90;;;;;;4034665;29;20162;-94
2023/08/02 10:57:11;;;;;;;7.30;1.45;;;23.40;99.90;;;;;;4046547;29;20208;-92
2023/08/02 10:59:11;;;;;;;11.73;1.70;;;23.20;99.90;;;;;;4031244;29;20245;-92
2023/08/02 11:01:13;;;;;;;12.27;1.88;;;23.20;99.90;;;;;;4049230;29;20261;-93
2023/08/02 11:03:28;;;;;;;8.82;1.70;;;23.20;99.90;;;;;;4032536;29;20186;-95
2023/08/02 11:05:46;;;;;;;11.68;1.48;;;23.20;99.90;;;;;;4045664;29;20190;-96
2023/08/02 11:08:01;;;;;;;6.50;1.60;;;23.10;99.90;;;;;;4037804;29;20197;-93
2023/08/02 11:10:05;;;;;;;10.13;2.00;;;23.00;99.90;;;;;;4051408;29;20713;-94